Summerfield, Texas
Current Conditions -  °F | °C
As of 1:35 AM on Thursday 23 Oct 2014 (Local Time) from KHRX Reporting Station
Overcast Overcast  
Wind Chill: 63°   Ceiling: 1200
Heat Index: 63°   Visibility: 7mi
Dew Point: 60°   Wind: 10mph
Humidity: 91%   Direction: 160°SSE
Pressure: 30.13"   Gusts: 16mph
Location:  34.74°N, 102.51°W
Report Text: KHRX 230635Z AUTO 16009G14KT 7SM OVC012 17/16 A3013 RMK AO2 T01720158
Loading
Personal Weather Stations






























Interactive Weather Map
Tropical Storm Tracking
New forecast layout! Learn more

10-Day Weather Forecast

Advertisements
Track Severe Weather on mobile